Time;durP1;ratioP1;P1;durP2;ratioP2;P2;SDS_P1;SDS_P2;PMS_P1;PMS_P2;Temp;Humidity;BMP_temperature;BMP_pressure;BME280_temperature;BME280_humidity;BME280_pressure;Samples;Min_cycle;Max_cycle;Signal;HPM_P1;HPM_P2
2021/12/20 00:02:08;;;;;;;16.40;6.07;;;0.00;99.90;;;;;;4374422;28;656973;-73
2021/12/20 00:04:56;;;;;;;19.77;6.40;;;0.10;99.90;;;;;;4385225;28;656647;-75
2021/12/20 00:07:43;;;;;;;21.73;6.67;;;0.10;99.90;;;;;;4393760;28;656795;-73
2021/12/20 00:10:31;;;;;;;15.37;7.00;;;0.10;99.90;;;;;;4385774;28;656956;-73
2021/12/20 00:13:19;;;;;;;14.40;4.67;;;0.10;99.90;;;;;;4399493;28;656522;-72
2021/12/20 00:16:07;;;;;;;19.67;6.10;;;0.10;99.90;;;;;;4381081;28;657360;-73
2021/12/20 00:18:56;;;;;;;14.90;6.57;;;0.10;99.90;;;;;;4409354;28;656044;-73
2021/12/20 00:21:43;;;;;;;21.50;6.70;;;0.10;99.90;;;;;;4384198;28;656892;-74
2021/12/20 00:24:31;;;;;;;15.07;6.23;;;0.20;99.90;;;;;;4391257;28;656786;-73
2021/12/20 00:27:19;;;;;;;17.83;6.53;;;0.10;99.90;;;;;;4409593;28;657209;-72
2021/12/20 00:30:08;;;;;;;16.33;6.67;;;0.10;99.90;;;;;;4378685;28;657671;-72
2021/12/20 00:32:56;;;;;;;23.77;5.83;;;0.10;99.90;;;;;;4387082;28;657355;-73
2021/12/20 00:35:46;;;;;;;12.93;5.97;;;0.10;99.90;;;;;;4403418;28;656983;-72
2021/12/20 00:41:39;;;;;;;15.17;6.40;;;0.10;99.90;;;;;;4380435;28;656311;-73
2021/12/20 00:44:26;;;;;;;19.43;6.33;;;0.10;99.90;;;;;;4385910;28;656229;-73
2021/12/20 00:47:14;;;;;;;19.17;7.17;;;0.10;99.90;;;;;;4403451;28;656521;-72
2021/12/20 00:50:02;;;;;;;14.83;5.60;;;0.10;99.90;;;;;;4370947;28;656701;-74
2021/12/20 00:52:51;;;;;;;12.00;4.47;;;0.10;99.90;;;;;;4405466;28;656472;-73
2021/12/20 00:55:39;;;;;;;17.40;6.17;;;0.00;99.90;;;;;;4366587;28;656734;-72
2021/12/20 00:58:27;;;;;;;15.37;7.07;;;0.00;99.90;;;;;;4386255;28;656304;-73
2021/12/20 01:01:15;;;;;;;18.40;6.90;;;0.00;99.90;;;;;;4396333;28;656441;-73
2021/12/20 01:04:03;;;;;;;15.63;6.23;;;0.00;99.90;;;;;;4403324;28;657416;-74
2021/12/20 01:06:51;;;;;;;23.97;6.83;;;0.00;99.90;;;;;;4384802;28;657381;-74
2021/12/20 01:09:40;;;;;;;18.97;7.30;;;0.10;99.90;;;;;;4409437;28;657687;-73
2021/12/20 01:12:32;;;;;;;14.03;6.10;;;0.10;99.90;;;;;;4381659;28;657340;-72
2021/12/20 01:15:22;;;;;;;20.63;6.67;;;0.00;99.90;;;;;;4378410;28;656375;-73
2021/12/20 01:18:11;;;;;;;19.37;7.03;;;0.00;99.90;;;;;;4396597;28;656213;-72
2021/12/20 01:20:58;;;;;;;17.87;7.10;;;0.00;99.90;;;;;;4412991;28;656788;-72
2021/12/20 01:23:46;;;;;;;17.30;6.67;;;0.00;99.90;;;;;;4388037;28;656803;-73
2021/12/20 01:26:35;;;;;;;14.67;6.50;;;0.00;99.90;;;;;;4406547;28;657744;-71
2021/12/20 01:29:23;;;;;;;19.43;7.97;;;0.00;99.90;;;;;;4399218;28;656731;-72
2021/12/20 01:32:10;;;;;;;18.93;6.93;;;0.00;99.90;;;;;;4420378;28;656418;-72
2021/12/20 01:34:58;;;;;;;16.03;6.27;;;0.00;99.90;;;;;;4428768;28;656991;-73
2021/12/20 01:37:46;;;;;;;17.70;5.40;;;0.00;99.90;;;;;;4409676;28;656340;-74
2021/12/20 01:40:34;;;;;;;15.37;7.50;;;0.00;99.90;;;;;;4424049;28;657932;-73
2021/12/20 01:43:24;;;;;;;19.30;7.37;;;0.00;99.90;;;;;;4406020;28;658076;-75
2021/12/20 01:46:11;;;;;;;17.35;7.80;;;0.10;99.90;;;;;;4397518;28;656616;-73
2021/12/20 01:49:00;;;;;;;18.50;7.20;;;0.10;99.90;;;;;;4423383;28;656854;-73
2021/12/20 01:52:01;;;;;;;14.23;6.37;;;0.10;99.90;;;;;;4403819;28;657723;-73
2021/12/20 01:54:49;;;;;;;15.70;7.25;;;0.10;99.90;;;;;;4401505;28;657003;-73
2021/12/20 01:57:36;;;;;;;15.63;6.90;;;0.10;99.90;;;;;;4407270;28;656574;-72
2021/12/20 02:00:28;;;;;;;19.20;7.97;;;0.10;99.90;;;;;;4422417;28;656209;-73
2021/12/20 02:03:16;;;;;;;19.87;8.30;;;0.10;99.90;;;;;;4388196;28;657123;-72
2021/12/20 02:06:08;;;;;;;17.60;7.93;;;0.10;99.90;;;;;;4430496;28;657343;-72
2021/12/20 02:08:56;;;;;;;14.23;7.00;;;0.10;99.90;;;;;;4398385;28;657133;-71
2021/12/20 02:11:45;;;;;;;20.90;8.03;;;0.00;99.90;;;;;;4429879;28;656984;-74
2021/12/20 02:14:33;;;;;;;18.23;7.75;;;0.10;99.90;;;;;;4411140;28;657354;-72
2021/12/20 02:17:22;;;;;;;20.63;8.67;;;0.10;99.90;;;;;;4420015;28;656773;-72
2021/12/20 02:20:24;;;;;;;19.13;7.53;;;0.10;99.90;;;;;;4429890;28;656678;-73
2021/12/20 02:23:11;;;;;;;14.30;5.93;;;0.10;99.90;;;;;;4376438;28;656799;-71
2021/12/20 02:25:59;;;;;;;13.33;5.07;;;0.10;99.90;;;;;;4424465;28;657239;-74
2021/12/20 02:28:49;;;;;;;13.03;6.33;;;0.10;99.90;;;;;;4410933;28;657784;-71
2021/12/20 02:37:48;;;;;;;12.17;5.77;;;0.00;99.90;;;;;;4396606;28;655655;-72
2021/12/20 02:40:36;;;;;;;16.60;7.03;;;0.00;99.90;;;;;;4394685;28;656920;-72
2021/12/20 02:43:24;;;;;;;9.70;4.90;;;0.00;99.90;;;;;;4413588;28;657969;-72
2021/12/20 02:46:28;;;;;;;11.63;5.80;;;0.00;99.90;;;;;;4393318;28;655698;-73
2021/12/20 02:49:17;;;;;;;12.57;5.90;;;0.00;99.90;;;;;;4384633;28;656352;-73
2021/12/20 02:52:05;;;;;;;10.07;5.67;;;-0.10;99.90;;;;;;4424305;28;656370;-73
2021/12/20 02:54:54;;;;;;;14.00;6.40;;;-0.10;99.90;;;;;;4405380;28;658812;-74
2021/12/20 02:57:42;;;;;;;9.83;4.70;;;-0.10;99.90;;;;;;4408568;28;657494;-72
2021/12/20 03:00:29;;;;;;;10.90;5.27;;;-0.10;99.90;;;;;;4428503;28;656449;-72
2021/12/20 03:03:17;;;;;;;11.03;4.77;;;-0.10;99.90;;;;;;4401969;28;659305;-72
2021/12/20 03:06:10;;;;;;;8.80;4.77;;;-0.10;99.90;;;;;;4417900;28;657491;-73
2021/12/20 03:08:58;;;;;;;11.20;5.13;;;-0.10;99.90;;;;;;4384990;28;657750;-73
2021/12/20 03:11:48;;;;;;;14.30;6.00;;;-0.10;99.90;;;;;;4407728;28;658168;-72
2021/12/20 03:14:38;;;;;;;10.47;5.33;;;-0.10;99.90;;;;;;4417004;28;657722;-72
2021/12/20 03:17:26;;;;;;;16.17;5.57;;;-0.10;99.90;;;;;;4404392;28;657573;-73
2021/12/20 03:20:14;;;;;;;12.97;5.80;;;-0.10;99.90;;;;;;4423393;28;658457;-73
2021/12/20 03:23:02;;;;;;;11.93;5.13;;;-0.10;99.90;;;;;;4398073;28;658904;-72
2021/12/20 03:25:50;;;;;;;9.50;5.13;;;-0.10;99.90;;;;;;4419237;28;658091;-72
2021/12/20 03:28:39;;;;;;;12.03;5.37;;;-0.10;99.90;;;;;;4405640;28;657328;-72
2021/12/20 03:31:26;;;;;;;12.77;5.17;;;0.00;99.90;;;;;;4409805;28;657673;-72
2021/12/20 03:34:14;;;;;;;9.97;5.23;;;0.00;99.90;;;;;;4421055;28;656425;-73
2021/12/20 03:37:01;;;;;;;8.50;4.50;;;0.00;99.90;;;;;;4408723;28;656076;-72
2021/12/20 03:39:49;;;;;;;7.83;5.10;;;0.00;99.90;;;;;;4411359;28;656085;-71
2021/12/20 03:42:41;;;;;;;7.00;3.57;;;0.00;99.90;;;;;;4405321;28;655424;-73
2021/12/20 03:45:30;;;;;;;10.63;5.10;;;0.00;99.90;;;;;;4397077;28;657075;-75
2021/12/20 03:48:18;;;;;;;11.13;4.63;;;0.00;99.90;;;;;;4408748;28;656814;-72
2021/12/20 03:51:06;;;;;;;8.97;4.33;;;0.00;99.90;;;;;;4407856;28;656976;-72
2021/12/20 03:53:53;;;;;;;7.43;3.73;;;0.00;99.90;;;;;;4418796;28;655905;-72
2021/12/20 03:56:41;;;;;;;7.17;3.03;;;0.00;99.90;;;;;;4405175;28;655403;-74
2021/12/20 03:59:29;;;;;;;10.73;5.30;;;0.00;99.90;;;;;;4417820;28;656851;-71
2021/12/20 04:02:20;;;;;;;9.27;4.10;;;0.00;99.90;;;;;;4402887;28;656997;-72
2021/12/20 04:05:08;;;;;;;5.17;2.83;;;0.00;99.90;;;;;;4393594;28;656247;-72
2021/12/20 04:07:56;;;;;;;15.40;4.83;;;0.00;99.90;;;;;;4410591;28;656218;-71
2021/12/20 04:10:43;;;;;;;9.97;4.77;;;0.00;99.90;;;;;;4429427;28;657085;-72
2021/12/20 04:13:31;;;;;;;10.07;5.07;;;-0.10;99.90;;;;;;4404724;28;655414;-72
2021/12/20 04:16:19;;;;;;;10.38;4.40;;;-0.10;99.90;;;;;;4411686;28;658702;-73
2021/12/20 04:19:08;;;;;;;10.27;4.93;;;-0.10;99.90;;;;;;4390737;28;658148;-72
2021/12/20 04:21:56;;;;;;;13.70;4.90;;;-0.10;99.90;;;;;;4406716;28;657295;-72
2021/12/20 04:24:43;;;;;;;11.63;4.67;;;0.00;99.90;;;;;;4424230;28;658098;-73
2021/12/20 04:27:31;;;;;;;10.40;4.10;;;0.00;99.90;;;;;;4400871;28;656730;-73
2021/12/20 04:30:18;;;;;;;10.50;4.03;;;-0.10;99.90;;;;;;4412323;28;657890;-71
2021/12/20 04:33:06;;;;;;;12.10;5.67;;;-0.10;99.90;;;;;;4400246;28;657396;-71
2021/12/20 04:35:56;;;;;;;10.20;5.17;;;-0.10;99.90;;;;;;4415768;28;658817;-71
2021/12/20 04:38:43;;;;;;;16.17;4.40;;;-0.10;99.90;;;;;;4393182;28;658153;-71
2021/12/20 04:41:31;;;;;;;13.13;4.10;;;-0.10;99.90;;;;;;4399397;28;657845;-71
2021/12/20 04:44:19;;;;;;;8.50;4.17;;;-0.10;99.90;;;;;;4410785;28;658874;-71
2021/12/20 04:47:06;;;;;;;8.40;3.67;;;-0.10;99.90;;;;;;4398064;28;656316;-72
2021/12/20 04:49:54;;;;;;;10.87;4.20;;;-0.10;99.90;;;;;;4420729;28;657257;-71
2021/12/20 04:52:43;;;;;;;14.30;3.90;;;-0.10;99.90;;;;;;4397217;28;657967;-71
2021/12/20 04:55:31;;;;;;;8.32;3.40;;;-0.10;99.90;;;;;;4398765;28;657657;-72
2021/12/20 04:58:18;;;;;;;7.37;3.60;;;-0.10;99.90;;;;;;4413536;28;656753;-73
2021/12/20 05:01:06;;;;;;;10.87;4.00;;;0.00;99.90;;;;;;4398953;28;656606;-72
2021/12/20 05:03:54;;;;;;;6.90;3.22;;;0.00;99.90;;;;;;4423003;28;658141;-71
2021/12/20 05:06:41;;;;;;;10.53;3.60;;;0.00;99.90;;;;;;4405730;28;656209;-73
2021/12/20 05:09:36;;;;;;;7.47;3.07;;;0.00;99.90;;;;;;4421578;28;656817;-71
2021/12/20 05:12:24;;;;;;;7.07;3.37;;;-0.10;99.90;;;;;;4404851;28;655775;-71
2021/12/20 05:15:12;;;;;;;8.53;3.33;;;-0.10;99.90;;;;;;4404313;28;656421;-72
2021/12/20 05:17:59;;;;;;;11.03;3.93;;;-0.10;99.90;;;;;;4422961;28;656328;-73
2021/12/20 05:20:47;;;;;;;11.03;4.30;;;-0.10;99.90;;;;;;4403336;28;657756;-73
2021/12/20 05:23:35;;;;;;;9.30;3.20;;;-0.10;99.90;;;;;;4432010;28;657523;-71
2021/12/20 05:26:24;;;;;;;6.73;3.63;;;-0.10;99.90;;;;;;4406793;28;656785;-72
2021/12/20 05:29:11;;;;;;;4.93;2.93;;;-0.20;99.90;;;;;;4400854;28;656698;-72
2021/12/20 05:32:02;;;;;;;9.50;4.23;;;-0.20;99.90;;;;;;4411764;28;656397;-71
2021/12/20 05:34:50;;;;;;;17.77;2.87;;;-0.20;99.90;;;;;;4389039;28;657405;-73
2021/12/20 05:37:37;;;;;;;11.07;3.93;;;-0.20;99.90;;;;;;4388090;28;659423;-70
2021/12/20 05:40:26;;;;;;;8.90;4.13;;;-0.20;99.90;;;;;;4406965;28;658488;-72
2021/12/20 05:43:15;;;;;;;9.03;3.80;;;-0.20;99.90;;;;;;4412421;28;657079;-72
2021/12/20 05:46:02;;;;;;;10.67;4.43;;;-0.10;99.90;;;;;;4391871;28;658325;-73
2021/12/20 05:48:51;;;;;;;15.20;5.57;;;-0.20;99.90;;;;;;4411627;28;657385;-72
2021/12/20 05:51:38;;;;;;;6.83;4.07;;;-0.20;99.90;;;;;;4431132;28;658070;-72
2021/12/20 05:54:26;;;;;;;10.07;4.07;;;-0.20;99.90;;;;;;4401513;28;656357;-72
2021/12/20 05:57:14;;;;;;;10.47;4.93;;;-0.20;99.90;;;;;;4423398;28;658579;-72
2021/12/20 06:00:06;;;;;;;8.13;4.47;;;-0.20;99.90;;;;;;4408504;28;657796;-72
2021/12/20 06:02:53;;;;;;;13.07;4.60;;;-0.20;99.90;;;;;;4403833;28;657230;-73
2021/12/20 06:05:42;;;;;;;13.33;5.13;;;-0.20;99.90;;;;;;4407845;28;658044;-71
2021/12/20 06:08:33;;;;;;;14.63;5.07;;;-0.20;99.90;;;;;;4427503;28;658508;-71
2021/12/20 06:11:20;;;;;;;9.80;4.50;;;-0.20;99.90;;;;;;4385833;28;657480;-72
2021/12/20 06:14:08;;;;;;;14.60;5.87;;;-0.20;99.90;;;;;;4418789;28;657468;-72
2021/12/20 06:16:58;;;;;;;10.93;5.27;;;-0.20;99.90;;;;;;4407553;28;657610;-72
2021/12/20 06:19:46;;;;;;;10.60;5.80;;;-0.20;99.90;;;;;;4407085;28;657713;-72
2021/12/20 06:22:33;;;;;;;13.83;5.50;;;-0.10;99.90;;;;;;4425970;28;659024;-72
2021/12/20 06:25:21;;;;;;;10.60;5.30;;;-0.20;99.90;;;;;;4407054;28;658328;-71
2021/12/20 06:28:09;;;;;;;14.40;5.77;;;-0.10;99.90;;;;;;4417719;28;657720;-71
2021/12/20 06:30:56;;;;;;;14.87;4.77;;;-0.20;99.90;;;;;;4408433;28;657520;-72
2021/12/20 06:33:46;;;;;;;13.17;5.87;;;-0.20;99.90;;;;;;4427580;28;658210;-71
2021/12/20 06:36:33;;;;;;;10.40;4.73;;;-0.20;99.90;;;;;;4404944;28;658894;-72
2021/12/20 06:39:23;;;;;;;12.20;6.30;;;-0.10;99.90;;;;;;4401778;28;657848;-71
2021/12/20 06:42:11;;;;;;;17.13;6.90;;;-0.20;99.90;;;;;;4409752;28;658098;-72
2021/12/20 06:44:58;;;;;;;12.93;5.50;;;-0.20;99.90;;;;;;4414776;28;660006;-71
2021/12/20 06:47:46;;;;;;;9.73;4.83;;;-0.20;99.90;;;;;;4408157;28;657625;-71
2021/12/20 06:50:35;;;;;;;10.33;4.97;;;-0.10;99.90;;;;;;4428493;28;657289;-72
2021/12/20 06:53:23;;;;;;;6.87;4.73;;;-0.20;99.90;;;;;;4395226;28;658798;-73
2021/12/20 06:56:12;;;;;;;11.00;5.97;;;-0.20;99.90;;;;;;4403167;28;657125;-71
2021/12/20 06:58:59;;;;;;;12.63;5.90;;;-0.10;99.90;;;;;;4428648;28;657709;-73
2021/12/20 07:01:47;;;;;;;14.57;5.77;;;-0.10;99.90;;;;;;4412022;28;657253;-73
2021/12/20 07:04:34;;;;;;;13.03;5.27;;;-0.10;99.90;;;;;;4431441;28;657560;-73
2021/12/20 07:07:24;;;;;;;10.77;4.63;;;-0.10;99.90;;;;;;4377735;28;659055;-71
2021/12/20 07:10:12;;;;;;;7.90;3.80;;;0.00;99.90;;;;;;4391531;28;657967;-69
2021/12/20 07:12:59;;;;;;;11.30;5.43;;;-0.10;99.90;;;;;;4430186;28;655832;-72
2021/12/20 07:16:08;;;;;;;13.27;5.83;;;0.00;99.90;;;;;;4412179;28;657815;-73
2021/12/20 07:18:56;;;;;;;12.93;5.77;;;-0.10;99.90;;;;;;4390627;28;656394;-73
2021/12/20 07:21:44;;;;;;;10.07;4.63;;;-0.10;99.90;;;;;;4430696;28;658971;-71
2021/12/20 07:24:33;;;;;;;12.47;5.73;;;0.00;99.90;;;;;;4410109;28;657694;-71
2021/12/20 07:27:21;;;;;;;11.37;5.60;;;-0.10;99.90;;;;;;4410637;28;656768;-72
2021/12/20 07:30:09;;;;;;;11.63;5.30;;;-0.10;99.90;;;;;;4422720;28;658455;-72
2021/12/20 07:32:57;;;;;;;13.17;6.23;;;-0.10;99.90;;;;;;4399260;28;657926;-71
2021/12/20 07:35:45;;;;;;;10.10;4.97;;;-0.10;99.90;;;;;;4420992;28;657693;-72
2021/12/20 07:38:34;;;;;;;12.60;6.03;;;-0.10;99.90;;;;;;4398609;28;658213;-71
2021/12/20 07:41:23;;;;;;;10.27;5.00;;;-0.10;99.90;;;;;;4408353;28;658576;-72
2021/12/20 07:44:11;;;;;;;10.13;4.43;;;-0.10;99.90;;;;;;4394100;28;658211;-70
2021/12/20 07:46:59;;;;;;;11.13;6.03;;;-0.10;99.90;;;;;;4422518;28;658673;-71
2021/12/20 07:49:46;;;;;;;6.50;3.80;;;-0.10;99.90;;;;;;4401746;28;657663;-70
2021/12/20 07:52:34;;;;;;;12.33;6.33;;;-0.10;99.90;;;;;;4428455;28;656934;-71
2021/12/20 07:55:21;;;;;;;11.10;6.17;;;-0.10;99.90;;;;;;4408025;28;658558;-73
2021/12/20 07:58:11;;;;;;;11.60;4.37;;;-0.10;99.90;;;;;;4424490;28;657671;-70
2021/12/20 08:01:01;;;;;;;10.40;6.17;;;0.00;99.90;;;;;;4382690;28;657646;-72
2021/12/20 08:03:49;;;;;;;10.37;5.00;;;0.00;99.90;;;;;;4391634;28;656879;-71
2021/12/20 08:06:37;;;;;;;13.90;5.47;;;0.00;99.90;;;;;;4401659;28;657772;-75
2021/12/20 08:09:47;;;;;;;17.83;6.57;;;0.00;99.90;;;;;;4420109;28;656687;-71
2021/12/20 08:12:34;;;;;;;11.47;5.63;;;0.00;99.90;;;;;;4407490;28;658093;-70
2021/12/20 08:15:26;;;;;;;15.23;6.80;;;0.00;99.90;;;;;;4409320;28;657306;-71
2021/12/20 08:18:14;;;;;;;11.87;5.43;;;0.10;99.90;;;;;;4387443;28;657603;-73
2021/12/20 08:21:02;;;;;;;16.17;6.90;;;0.10;99.90;;;;;;4388552;28;657081;-72
2021/12/20 08:23:50;;;;;;;14.20;6.10;;;0.10;99.90;;;;;;4410719;28;656747;-72
2021/12/20 08:26:37;;;;;;;11.77;5.87;;;0.10;99.90;;;;;;4389727;28;657729;-72
2021/12/20 08:29:26;;;;;;;12.33;5.90;;;0.10;99.90;;;;;;4411920;28;656859;-71
2021/12/20 08:32:15;;;;;;;12.23;5.33;;;0.10;99.90;;;;;;4390572;28;656949;-71
2021/12/20 08:35:03;;;;;;;12.50;5.70;;;0.20;99.90;;;;;;4383665;28;656520;-71
2021/12/20 08:37:53;;;;;;;12.90;6.27;;;0.10;99.90;;;;;;4387008;28;656925;-71
2021/12/20 08:40:41;;;;;;;13.37;5.43;;;0.10;99.90;;;;;;4394515;28;656305;-72
2021/12/20 08:43:29;;;;;;;8.33;4.27;;;0.20;99.90;;;;;;4412919;28;656879;-72
2021/12/20 08:46:16;;;;;;;10.93;5.40;;;0.20;99.90;;;;;;4394875;28;656135;-71
2021/12/20 08:49:06;;;;;;;10.13;4.13;;;0.20;99.90;;;;;;4412714;28;657251;-72
2021/12/20 08:51:55;;;;;;;12.33;5.63;;;0.20;99.90;;;;;;4385187;28;656955;-71
2021/12/20 08:54:42;;;;;;;8.43;4.57;;;0.20;99.90;;;;;;4390077;28;658300;-75
2021/12/20 08:57:30;;;;;;;13.03;6.17;;;0.20;99.90;;;;;;4410487;28;656298;-71
2021/12/20 09:00:19;;;;;;;8.05;5.30;;;0.20;99.90;;;;;;4388749;28;657593;-71
2021/12/20 09:03:08;;;;;;;12.63;5.00;;;0.20;99.90;;;;;;4395844;28;655279;-71
2021/12/20 09:05:57;;;;;;;9.73;4.40;;;0.30;99.90;;;;;;4407348;28;656601;-71
2021/12/20 09:08:47;;;;;;;11.57;5.00;;;0.30;99.90;;;;;;4423036;28;655485;-71
2021/12/20 09:11:34;;;;;;;6.37;3.70;;;0.20;99.90;;;;;;4393144;28;656808;-71
2021/12/20 09:14:22;;;;;;;10.53;3.73;;;0.20;99.90;;;;;;4393259;28;656060;-71
2021/12/20 09:17:11;;;;;;;10.43;4.90;;;0.20;99.90;;;;;;4411090;28;656723;-71
2021/12/20 09:19:58;;;;;;;9.40;4.70;;;0.20;99.90;;;;;;4416466;28;656801;-72
2021/12/20 09:22:52;;;;;;;11.43;5.13;;;0.20;99.90;;;;;;4391636;28;655622;-71
2021/12/20 09:25:43;;;;;;;11.17;5.50;;;0.20;99.90;;;;;;4385115;28;656901;-72
2021/12/20 09:28:31;;;;;;;8.17;4.20;;;0.20;99.90;;;;;;4371794;28;657024;-71
2021/12/20 09:31:19;;;;;;;8.60;4.47;;;0.20;99.90;;;;;;4413659;28;655749;-72
2021/12/20 09:34:07;;;;;;;8.07;4.50;;;0.20;99.90;;;;;;4393563;28;656504;-73
2021/12/20 09:36:55;;;;;;;10.93;5.43;;;0.20;99.90;;;;;;4412796;28;656119;-71
2021/12/20 09:39:49;;;;;;;10.40;4.87;;;0.20;99.90;;;;;;4389899;28;656778;-72
2021/12/20 09:42:37;;;;;;;7.63;4.63;;;0.20;99.90;;;;;;4366280;28;657476;-71
2021/12/20 09:45:24;;;;;;;8.03;3.80;;;0.20;99.90;;;;;;4406935;28;655362;-71
2021/12/20 09:48:12;;;;;;;6.00;3.40;;;0.20;99.90;;;;;;4396933;28;655996;-72
2021/12/20 09:51:00;;;;;;;5.60;3.60;;;0.20;99.90;;;;;;4421355;28;655860;-71
2021/12/20 09:53:47;;;;;;;5.63;3.00;;;0.20;99.90;;;;;;4399237;28;657133;-71
2021/12/20 09:56:38;;;;;;;8.83;4.80;;;0.30;99.90;;;;;;4413725;28;656173;-71
2021/12/20 09:59:27;;;;;;;8.23;4.10;;;0.30;99.90;;;;;;4379589;28;655666;-70
2021/12/20 10:02:14;;;;;;;8.57;4.13;;;0.30;99.90;;;;;;4409898;28;655747;-72
2021/12/20 10:05:02;;;;;;;9.47;4.30;;;0.30;99.90;;;;;;4402024;28;655918;-71
2021/12/20 10:07:51;;;;;;;9.00;4.40;;;0.40;99.90;;;;;;4406339;28;655952;-71
2021/12/20 10:10:40;;;;;;;9.17;4.70;;;0.40;99.90;;;;;;4393845;28;657950;-71
2021/12/20 10:13:30;;;;;;;11.07;4.33;;;0.40;99.90;;;;;;4388316;28;657161;-72
2021/12/20 10:16:19;;;;;;;5.97;3.43;;;0.40;99.90;;;;;;4385295;28;657227;-71
2021/12/20 10:19:09;;;;;;;10.50;3.33;;;0.40;99.90;;;;;;4390468;28;655918;-73
2021/12/20 10:21:58;;;;;;;7.55;3.40;;;0.40;99.90;;;;;;4392627;28;656257;-73
2021/12/20 10:24:46;;;;;;;7.80;3.58;;;0.40;99.90;;;;;;4410919;28;656336;-71
2021/12/20 10:27:34;;;;;;;7.57;4.30;;;0.40;99.90;;;;;;4428482;28;656318;-72
2021/12/20 10:30:27;;;;;;;10.23;4.40;;;0.30;99.90;;;;;;4407706;28;655246;-71
2021/12/20 10:33:15;;;;;;;6.90;3.57;;;0.30;99.90;;;;;;4389442;28;658264;-69
2021/12/20 10:36:05;;;;;;;10.07;4.40;;;0.30;99.90;;;;;;4389368;28;656445;-70
2021/12/20 10:38:56;;;;;;;7.27;3.73;;;0.30;99.90;;;;;;4392817;28;657413;-70
2021/12/20 10:41:50;;;;;;;6.57;3.50;;;0.30;99.90;;;;;;4394327;28;655906;-70
2021/12/20 10:44:37;;;;;;;8.57;4.40;;;0.30;99.90;;;;;;4372438;28;656703;-70
2021/12/20 10:47:28;;;;;;;7.87;4.23;;;0.30;99.90;;;;;;4413194;28;655725;-70
2021/12/20 10:50:27;;;;;;;8.50;4.30;;;0.20;99.90;;;;;;4396554;28;655248;-70
2021/12/20 10:53:21;;;;;;;5.07;3.17;;;0.20;99.90;;;;;;4388780;28;655698;-70
2021/12/20 10:56:08;;;;;;;7.07;3.23;;;0.20;99.90;;;;;;4394021;28;655583;-72
2021/12/20 10:58:56;;;;;;;8.20;3.90;;;0.30;99.90;;;;;;4396991;28;656167;-73
2021/12/20 11:05:00;;;;;;;8.70;4.60;;;0.20;99.90;;;;;;4301116;28;656576;-72
2021/12/20 11:11:10;;;;;;;12.20;5.43;;;0.20;99.90;;;;;;4269791;29;656645;-73
2021/12/20 11:13:58;;;;;;;7.80;4.47;;;0.20;99.90;;;;;;4287527;29;658180;-75
2021/12/20 11:16:48;;;;;;;10.13;4.67;;;0.20;99.90;;;;;;4293427;29;655882;-72
2021/12/20 11:19:36;;;;;;;9.37;4.97;;;0.20;99.90;;;;;;4290880;29;657222;-73
2021/12/20 11:22:26;;;;;;;12.80;5.33;;;0.20;99.90;;;;;;4311305;29;656549;-71
2021/12/20 11:25:15;;;;;;;7.75;4.25;;;0.20;99.90;;;;;;4288280;29;657929;-71
2021/12/20 11:28:03;;;;;;;10.00;5.23;;;0.20;99.90;;;;;;4281790;29;655697;-72
2021/12/20 11:30:51;;;;;;;9.88;5.00;;;0.20;99.90;;;;;;4286709;29;657155;-72
2021/12/20 11:33:39;;;;;;;7.00;3.60;;;0.20;99.90;;;;;;4297524;29;656445;-71
2021/12/20 11:36:26;;;;;;;11.90;4.00;;;0.20;99.90;;;;;;4292882;29;655864;-72
2021/12/20 11:39:16;;;;;;;10.20;4.00;;;0.20;99.90;;;;;;4310309;29;657481;-71
2021/12/20 11:42:05;;;;;;;6.33;3.40;;;0.20;99.90;;;;;;4280290;29;656930;-72
2021/12/20 11:44:55;;;;;;;9.97;4.33;;;0.20;99.90;;;;;;4302430;28;657193;-73
2021/12/20 11:47:47;;;;;;;6.60;3.20;;;0.30;99.90;;;;;;4325625;28;656489;-70
2021/12/20 11:50:36;;;;;;;9.70;4.47;;;0.20;99.90;;;;;;4377150;28;655823;-72
2021/12/20 11:53:23;;;;;;;9.83;4.20;;;0.20;99.90;;;;;;4393030;28;656192;-71
2021/12/20 11:56:13;;;;;;;8.20;3.97;;;0.20;99.90;;;;;;4396916;28;655490;-72
2021/12/20 11:59:01;;;;;;;10.90;4.33;;;0.30;99.90;;;;;;4409100;28;655374;-72
2021/12/20 12:01:49;;;;;;;9.53;3.87;;;0.30;99.90;;;;;;4418138;28;657989;-72
2021/12/20 12:05:01;;;;;;;6.47;3.47;;;0.30;99.90;;;;;;4396975;28;655505;-72
2021/12/20 12:07:50;;;;;;;6.07;3.43;;;0.30;99.90;;;;;;4379125;28;656090;-72
2021/12/20 12:10:37;;;;;;;8.70;4.20;;;0.40;99.90;;;;;;4375829;28;657500;-72
2021/12/20 12:13:28;;;;;;;5.80;3.20;;;0.30;99.90;;;;;;4397877;28;655988;-71
2021/12/20 12:16:27;;;;;;;8.87;4.07;;;0.30;99.90;;;;;;4378730;28;655147;-71
2021/12/20 12:19:16;;;;;;;9.68;3.78;;;0.30;99.90;;;;;;4379485;28;655780;-71
2021/12/20 12:22:04;;;;;;;6.95;3.92;;;0.30;99.90;;;;;;4374979;28;656948;-71
2021/12/20 12:24:51;;;;;;;5.60;2.90;;;0.30;99.90;;;;;;4394764;28;655465;-72
2021/12/20 12:27:43;;;;;;;11.20;5.47;;;0.30;92.20;;;;;;4415050;28;655375;-72
2021/12/20 12:30:36;;;;;;;8.70;5.13;;;0.20;96.30;;;;;;4371883;28;656782;-71
2021/12/20 12:33:29;;;;;;;7.63;4.40;;;0.20;99.90;;;;;;4379114;28;655865;-72
2021/12/20 12:36:30;;;;;;;11.30;5.10;;;0.20;99.90;;;;;;4369931;28;656303;-71
2021/12/20 12:39:21;;;;;;;13.57;4.80;;;0.20;99.90;;;;;;4389665;28;657327;-72
2021/12/20 12:42:09;;;;;;;7.60;3.43;;;0.20;99.90;;;;;;4394846;28;656654;-70
2021/12/20 12:44:57;;;;;;;10.87;5.10;;;0.20;99.90;;;;;;4381363;28;655869;-71
2021/12/20 12:47:46;;;;;;;12.33;5.57;;;0.20;99.90;;;;;;4413009;28;657087;-71
2021/12/20 12:50:34;;;;;;;14.82;5.53;;;0.20;99.90;;;;;;4390288;28;657762;-70
2021/12/20 12:53:39;;;;;;;11.00;5.73;;;0.20;99.90;;;;;;4393074;28;656549;-71
2021/12/20 12:56:30;;;;;;;18.20;7.20;;;0.20;99.90;;;;;;4394546;28;656924;-71
2021/12/20 12:59:24;;;;;;;12.70;7.07;;;0.20;99.90;;;;;;4376320;28;657581;-71
2021/12/20 13:02:12;;;;;;;17.37;7.10;;;0.20;99.90;;;;;;4368090;28;657216;-70
2021/12/20 13:05:06;;;;;;;12.87;6.97;;;0.10;99.90;;;;;;4412775;28;656423;-71
2021/12/20 13:07:54;;;;;;;12.30;6.03;;;0.10;99.90;;;;;;4390197;28;657164;-71
2021/12/20 13:10:43;;;;;;;15.27;6.27;;;0.10;99.90;;;;;;4394196;28;657125;-71
2021/12/20 13:13:41;;;;;;;11.53;5.87;;;0.00;99.90;;;;;;4393533;28;656721;-71
2021/12/20 13:16:30;;;;;;;7.90;5.10;;;0.00;99.90;;;;;;4389961;28;657480;-71
2021/12/20 13:19:28;;;;;;;9.93;4.57;;;0.00;99.90;;;;;;4395219;28;656196;-69
2021/12/20 13:22:17;;;;;;;10.60;5.53;;;0.00;99.90;;;;;;4363906;28;656043;-70
2021/12/20 13:25:05;;;;;;;16.57;6.60;;;0.00;99.90;;;;;;4395126;28;657110;-71
2021/12/20 13:27:57;;;;;;;13.27;6.70;;;0.00;99.90;;;;;;4373193;28;657177;-71
2021/12/20 13:30:49;;;;;;;15.38;6.93;;;0.00;99.90;;;;;;4350117;28;656709;-71
2021/12/20 13:33:37;;;;;;;9.47;4.80;;;0.00;99.90;;;;;;4401192;28;656880;-71
2021/12/20 13:36:27;;;;;;;8.63;4.80;;;0.00;99.90;;;;;;4404029;28;655765;-71
2021/12/20 13:39:16;;;;;;;11.40;6.10;;;0.00;99.90;;;;;;4423048;28;655932;-71
2021/12/20 13:42:07;;;;;;;12.60;6.40;;;0.00;99.90;;;;;;4394963;28;656782;-71
2021/12/20 13:44:55;;;;;;;10.87;5.83;;;0.00;99.90;;;;;;4394353;28;656825;-72
2021/12/20 13:47:42;;;;;;;11.30;4.80;;;0.00;99.90;;;;;;4394775;28;658068;-75
2021/12/20 13:50:30;;;;;;;11.07;5.60;;;0.00;99.90;;;;;;4425650;28;656855;-72
2021/12/20 13:53:20;;;;;;;14.87;6.77;;;0.00;99.90;;;;;;4406862;28;657306;-71
2021/12/20 13:56:10;;;;;;;10.25;6.20;;;0.00;99.90;;;;;;4403143;28;657032;-71
2021/12/20 13:58:57;;;;;;;9.27;5.53;;;0.00;99.90;;;;;;4397319;28;658293;-71
2021/12/20 14:01:45;;;;;;;8.10;4.00;;;0.00;99.90;;;;;;4410268;28;655680;-73
2021/12/20 14:04:36;;;;;;;10.43;5.37;;;-0.10;99.90;;;;;;4405575;28;656069;-71
2021/12/20 14:07:29;;;;;;;11.07;5.57;;;0.00;99.90;;;;;;4397231;28;658884;-71
2021/12/20 14:10:17;;;;;;;12.00;5.37;;;-0.10;99.90;;;;;;4395223;28;656609;-70
2021/12/20 14:13:08;;;;;;;11.00;5.73;;;-0.10;99.90;;;;;;4419026;28;657477;-71
2021/12/20 14:16:00;;;;;;;12.25;6.22;;;-0.10;99.90;;;;;;4399429;28;657469;-71
2021/12/20 14:18:48;;;;;;;15.47;7.23;;;-0.10;99.90;;;;;;4399119;28;658556;-71
2021/12/20 14:21:36;;;;;;;14.27;6.63;;;-0.10;99.90;;;;;;4399600;28;657942;-70
2021/12/20 14:24:24;;;;;;;13.43;7.57;;;-0.10;99.90;;;;;;4414761;28;658591;-71
2021/12/20 14:27:12;;;;;;;11.80;6.67;;;-0.10;99.90;;;;;;4393456;28;658018;-71
2021/12/20 14:30:03;;;;;;;9.67;5.13;;;-0.10;99.90;;;;;;4388297;28;657911;-71
2021/12/20 14:32:51;;;;;;;10.50;4.93;;;-0.20;99.90;;;;;;4360137;28;657054;-72
2021/12/20 14:35:39;;;;;;;9.53;5.00;;;-0.20;99.90;;;;;;4396203;28;658098;-72
2021/12/20 14:38:37;;;;;;;10.30;4.90;;;-0.10;99.90;;;;;;4365066;28;656999;-71
2021/12/20 14:41:29;;;;;;;12.33;5.93;;;-0.20;99.90;;;;;;4372033;28;658082;-71
2021/12/20 14:44:23;;;;;;;12.00;5.57;;;-0.20;99.90;;;;;;4347487;28;658554;-71